createdAt,value
2022-10-25T00:02:05.906Z,2.47
2022-10-25T00:04:35.541Z,2.60
2022-10-25T00:07:05.085Z,2.38
2022-10-25T00:09:34.672Z,2.78
2022-10-25T00:12:04.215Z,2.50
2022-10-25T00:14:34.115Z,3.17
2022-10-25T00:17:06.228Z,2.50
2022-10-25T00:19:35.852Z,2.65
2022-10-25T00:22:05.465Z,2.85
2022-10-25T00:24:35.019Z,2.30
2022-10-25T00:27:05.007Z,2.70
2022-10-25T00:29:34.609Z,2.50
2022-10-25T00:32:06.769Z,2.88
2022-10-25T00:34:36.315Z,3.05
2022-10-25T00:37:05.845Z,2.53
2022-10-25T00:39:35.403Z,2.60
2022-10-25T00:42:05.301Z,2.53
2022-10-25T00:44:51.443Z,2.85
2022-10-25T00:47:30.530Z,5.30
2022-10-25T00:50:03.423Z,2.85
2022-10-25T00:52:35.948Z,2.70
2022-10-25T00:55:06.720Z,2.80
2022-10-25T00:57:40.288Z,2.90
2022-10-25T01:00:11.391Z,2.75
2022-10-25T01:02:44.054Z,2.60
2022-10-25T01:05:13.843Z,2.90
2022-10-25T01:07:43.465Z,2.90
2022-10-25T01:10:13.129Z,3.03
2022-10-25T01:12:42.673Z,2.90
2022-10-25T01:15:13.404Z,2.75
2022-10-25T01:17:54.328Z,2.70
2022-10-25T01:20:43.651Z,2.42
2022-10-25T01:23:27.196Z,2.45
2022-10-25T01:26:25.580Z,2.67
2022-10-25T01:29:09.995Z,2.65
2022-10-25T01:34:14.411Z,2.80
2022-10-25T01:36:48.812Z,2.72
2022-10-25T01:39:22.248Z,3.00
2022-10-25T01:41:59.768Z,2.50
2022-10-25T01:44:39.439Z,2.60
2022-10-25T01:47:16.730Z,2.40
2022-10-25T01:49:49.593Z,2.63
2022-10-25T01:52:22.936Z,3.00
2022-10-25T01:54:52.969Z,2.50
2022-10-25T01:57:35.863Z,2.90
2022-10-25T02:00:10.557Z,2.80
2022-10-25T02:02:58.842Z,2.95
2022-10-25T02:05:30.956Z,2.60
2022-10-25T02:08:05.915Z,2.78
2022-10-25T02:10:39.873Z,2.35
2022-10-25T02:15:43.263Z,2.33
2022-10-25T02:18:19.089Z,2.88
2022-10-25T02:20:49.743Z,2.55
2022-10-25T02:23:20.683Z,3.30
2022-10-25T02:25:51.197Z,2.97
2022-10-25T02:28:22.530Z,2.63
2022-10-25T02:30:53.020Z,2.50
2022-10-25T02:33:25.237Z,2.85
2022-10-25T02:36:11.052Z,3.20
2022-10-25T02:38:41.177Z,3.47
2022-10-25T02:41:10.917Z,2.60
2022-10-25T02:43:40.561Z,6.13
2022-10-25T02:46:11.029Z,5.47
2022-10-25T02:48:43.860Z,4.03
2022-10-25T02:51:14.824Z,3.50
2022-10-25T02:53:44.499Z,3.20
2022-10-25T02:56:16.121Z,2.95
2022-10-25T02:58:48.227Z,2.80
2022-10-25T03:01:19.641Z,3.03
2022-10-25T03:03:51.903Z,2.70
2022-10-25T03:06:22.006Z,2.55
2022-10-25T03:08:51.578Z,2.70
2022-10-25T03:11:21.131Z,2.40
2022-10-25T03:13:50.716Z,2.58
2022-10-25T03:16:20.277Z,3.03
2022-10-25T03:18:52.421Z,2.70
2022-10-25T03:21:21.995Z,3.03
2022-10-25T03:23:51.571Z,2.65
2022-10-25T03:26:21.179Z,3.72
2022-10-25T03:28:50.736Z,2.78
2022-10-25T03:31:20.750Z,2.70
2022-10-25T03:33:53.409Z,2.67
2022-10-25T03:36:23.057Z,2.55
2022-10-25T03:38:52.657Z,2.50
2022-10-25T03:41:22.240Z,2.60
2022-10-25T03:43:51.799Z,4.00
2022-10-25T03:46:21.358Z,4.93
2022-10-25T03:48:53.925Z,2.95
2022-10-25T03:51:23.475Z,2.75
2022-10-25T03:53:53.352Z,3.10
2022-10-25T03:56:23.504Z,2.60
2022-10-25T03:58:53.508Z,3.00
2022-10-25T04:01:23.293Z,2.53
2022-10-25T04:03:55.531Z,2.60
2022-10-25T04:06:25.078Z,3.45
2022-10-25T04:08:54.676Z,3.20
2022-10-25T04:11:24.241Z,3.05
2022-10-25T04:13:53.832Z,3.55
2022-10-25T04:16:23.433Z,2.88
2022-10-25T04:18:57.317Z,2.53
2022-10-25T04:21:26.882Z,2.92
2022-10-25T04:23:58.297Z,2.53
2022-10-25T04:26:30.163Z,3.95
2022-10-25T04:28:59.793Z,3.33
2022-10-25T04:31:29.339Z,3.55
2022-10-25T04:34:01.689Z,2.95
2022-10-25T04:36:31.702Z,3.22
2022-10-25T04:39:01.266Z,2.78
2022-10-25T04:41:30.842Z,3.08
2022-10-25T04:44:00.495Z,2.72
2022-10-25T04:46:30.121Z,2.70
2022-10-25T04:49:02.293Z,2.40
2022-10-25T04:51:31.836Z,3.08
2022-10-25T04:54:01.409Z,3.00
2022-10-25T04:56:31.392Z,2.40
2022-10-25T04:59:01.636Z,2.75
2022-10-25T05:01:31.328Z,2.38
2022-10-25T05:04:03.619Z,3.13
2022-10-25T05:06:33.175Z,2.70
2022-10-25T05:09:02.735Z,3.05
2022-10-25T05:11:32.641Z,3.50
2022-10-25T05:14:02.790Z,2.85
2022-10-25T05:16:34.845Z,3.08
2022-10-25T05:19:07.176Z,3.05
2022-10-25T05:21:36.788Z,2.95
2022-10-25T05:24:07.270Z,2.72
2022-10-25T05:26:37.039Z,2.83
2022-10-25T05:29:10.062Z,2.80
2022-10-25T05:31:40.747Z,3.28
2022-10-25T05:34:13.281Z,3.05
2022-10-25T05:36:42.833Z,3.70
2022-10-25T05:39:12.404Z,3.50
2022-10-25T05:41:42.009Z,3.22
2022-10-25T05:44:11.742Z,4.10
2022-10-25T05:46:41.357Z,3.60
2022-10-25T05:49:14.379Z,3.70
2022-10-25T05:51:43.958Z,3.67
2022-10-25T05:54:14.662Z,4.15
2022-10-25T05:56:45.111Z,3.33
2022-10-25T05:59:16.075Z,4.13
2022-10-25T06:01:47.264Z,4.55
2022-10-25T06:04:19.957Z,4.18
2022-10-25T06:06:52.171Z,4.22
2022-10-25T06:09:21.794Z,3.88
2022-10-25T06:11:51.309Z,4.00
2022-10-25T06:14:20.852Z,4.47
2022-10-25T06:16:50.556Z,4.13
2022-10-25T06:19:23.163Z,4.40
2022-10-25T06:21:53.079Z,4.10
2022-10-25T06:24:22.627Z,4.65
2022-10-25T06:26:52.609Z,4.35
2022-10-25T06:29:22.540Z,3.80
2022-10-25T06:31:52.200Z,3.70
2022-10-25T06:34:24.355Z,4.20
2022-10-25T06:36:53.920Z,4.13
2022-10-25T06:39:23.466Z,4.38
2022-10-25T06:41:52.987Z,6.35
2022-10-25T06:44:22.680Z,4.40
2022-10-25T06:47:15.772Z,4.43
2022-10-25T06:49:44.392Z,4.25
2022-10-25T06:52:13.905Z,3.65
2022-10-25T06:54:44.096Z,3.83
2022-10-25T06:57:14.124Z,4.10
2022-10-25T06:59:45.932Z,3.83
2022-10-25T07:02:15.557Z,4.00
2022-10-25T07:04:47.724Z,5.80
2022-10-25T07:07:17.413Z,6.15
2022-10-25T07:09:46.980Z,5.07
2022-10-25T07:12:16.541Z,4.03
2022-10-25T07:14:46.069Z,4.28
2022-10-25T07:17:15.604Z,4.10
2022-10-25T07:19:47.839Z,3.83
2022-10-25T07:22:17.441Z,3.53
2022-10-25T07:24:46.946Z,3.75
2022-10-25T07:27:16.484Z,3.67
2022-10-25T07:29:46.129Z,4.10
2022-10-25T07:32:15.635Z,3.75
2022-10-25T07:34:47.777Z,3.72
2022-10-25T07:37:17.347Z,3.78
2022-10-25T07:39:46.855Z,3.10
2022-10-25T07:42:16.375Z,3.60
2022-10-25T07:47:16.514Z,3.40
2022-10-25T07:49:48.636Z,3.40
2022-10-25T07:52:18.168Z,3.25
2022-10-25T07:54:51.602Z,3.20
2022-10-25T07:57:21.141Z,2.70
2022-10-25T07:59:50.753Z,3.00
2022-10-25T08:02:25.457Z,3.65
2022-10-25T08:04:58.289Z,4.25
2022-10-25T08:07:28.028Z,3.03
2022-10-25T08:09:57.576Z,3.50
2022-10-25T08:12:27.192Z,4.13
2022-10-25T08:14:56.719Z,3.20
2022-10-25T08:17:26.301Z,3.05
2022-10-25T08:20:00.189Z,3.20
2022-10-25T08:24:59.288Z,3.30
2022-10-25T08:27:29.171Z,3.13
2022-10-25T08:29:58.712Z,3.03
2022-10-25T08:32:28.576Z,3.38
2022-10-25T08:35:00.695Z,3.42
2022-10-25T08:37:30.237Z,3.28
2022-10-25T08:39:59.766Z,2.90
2022-10-25T08:42:35.445Z,2.90
2022-10-25T08:45:09.079Z,2.83
2022-10-25T08:47:41.447Z,2.88
2022-10-25T08:50:21.361Z,3.40
2022-10-25T08:52:53.653Z,3.00
2022-10-25T08:55:29.047Z,2.78
2022-10-25T08:57:59.049Z,2.58
2022-10-25T09:00:32.407Z,3.17
2022-10-25T09:03:02.966Z,2.90
2022-10-25T09:05:40.001Z,3.05
2022-10-25T09:08:27.935Z,3.00
2022-10-25T09:11:02.689Z,2.60
2022-10-25T09:13:40.997Z,2.83
2022-10-25T09:16:15.149Z,2.60
2022-10-25T09:18:49.963Z,3.20
2022-10-25T09:21:25.742Z,2.80
2022-10-25T09:24:01.512Z,2.90
2022-10-25T09:26:43.814Z,3.05
2022-10-25T09:29:18.302Z,3.67
2022-10-25T09:31:50.950Z,3.63
2022-10-25T09:34:22.216Z,3.40
2022-10-25T09:36:57.676Z,3.05
2022-10-25T09:39:32.148Z,2.88
2022-10-25T09:42:02.235Z,3.53
2022-10-25T09:44:41.538Z,3.35
2022-10-25T09:47:15.966Z,3.50
2022-10-25T09:49:52.128Z,3.40
2022-10-25T09:52:30.362Z,3.03
2022-10-25T09:55:22.439Z,3.40
2022-10-25T09:57:51.998Z,3.30
2022-10-25T10:00:21.630Z,2.92
2022-10-25T10:02:51.280Z,3.60
2022-10-25T10:05:22.760Z,2.90
2022-10-25T10:07:54.940Z,3.45
2022-10-25T10:10:27.998Z,4.05
2022-10-25T10:13:00.858Z,3.20
2022-10-25T10:15:34.409Z,3.80
2022-10-25T10:18:25.518Z,3.42
2022-10-25T10:21:01.598Z,2.83
2022-10-25T10:23:35.661Z,2.70
2022-10-25T10:26:13.248Z,2.60
2022-10-25T10:28:47.434Z,2.30
2022-10-25T10:31:17.055Z,2.20
2022-10-25T10:33:51.352Z,2.30
2022-10-25T10:36:26.185Z,2.35
2022-10-25T10:39:17.424Z,2.60
2022-10-25T10:42:03.028Z,2.22
2022-10-25T10:44:34.843Z,1.83
2022-10-25T10:47:05.187Z,2.30
2022-10-25T10:49:38.744Z,2.60
2022-10-25T10:52:09.041Z,4.07
2022-10-25T10:54:50.685Z,4.80
2022-10-25T10:57:27.831Z,4.13
2022-10-25T10:59:59.257Z,3.45
2022-10-25T11:02:31.753Z,2.80
2022-10-25T11:05:01.570Z,2.72
2022-10-25T11:07:34.454Z,2.92
2022-10-25T11:10:32.068Z,3.03
2022-10-25T11:13:28.385Z,3.00
2022-10-25T11:16:17.944Z,2.70
2022-10-25T11:19:14.908Z,2.63
2022-10-25T11:22:03.237Z,2.38
2022-10-25T11:24:39.857Z,2.65
2022-10-25T11:27:20.178Z,2.40
2022-10-25T11:29:59.986Z,2.40
2022-10-25T11:32:51.317Z,2.50
2022-10-25T11:35:35.725Z,2.35
2022-10-25T11:38:09.420Z,1.77
2022-10-25T11:40:42.881Z,2.47
2022-10-25T11:43:39.850Z,2.20
2022-10-25T11:46:15.163Z,2.42
2022-10-25T11:48:57.782Z,2.33
2022-10-25T11:51:34.984Z,2.40
2022-10-25T11:54:20.559Z,2.33
2022-10-25T11:56:57.169Z,3.25
2022-10-25T11:59:37.678Z,2.25
2022-10-25T12:02:21.041Z,2.40
2022-10-25T12:04:57.846Z,2.30
2022-10-25T12:07:30.283Z,2.70
2022-10-25T12:10:07.051Z,2.70
2022-10-25T12:12:43.611Z,2.38
2022-10-25T12:15:22.188Z,2.30
2022-10-25T12:17:52.911Z,2.05
2022-10-25T12:20:26.422Z,2.00
2022-10-25T12:22:58.335Z,2.15
2022-10-25T12:25:30.389Z,2.30
2022-10-25T12:28:06.672Z,2.30
2022-10-25T12:30:39.379Z,2.20
2022-10-25T12:33:17.519Z,2.45
2022-10-25T12:35:51.353Z,1.63
2022-10-25T12:40:52.109Z,2.33
2022-10-25T12:43:24.555Z,2.65
2022-10-25T12:46:33.202Z,2.30
2022-10-25T12:49:24.980Z,2.20
2022-10-25T12:52:05.992Z,2.22
2022-10-25T12:54:59.701Z,2.30
2022-10-25T12:57:34.559Z,2.40
2022-10-25T13:00:11.486Z,2.10
2022-10-25T13:03:04.924Z,2.10
2022-10-25T13:06:06.724Z,1.98
2022-10-25T13:08:36.644Z,2.28
2022-10-25T13:11:07.929Z,2.17
2022-10-25T13:13:39.203Z,2.08
2022-10-25T13:16:11.344Z,2.58
2022-10-25T13:18:48.430Z,2.42
2022-10-25T13:21:19.193Z,2.38
2022-10-25T13:24:03.863Z,1.77
2022-10-25T13:26:35.671Z,2.00
2022-10-25T13:29:40.524Z,2.20
2022-10-25T13:34:49.945Z,2.47
2022-10-25T13:37:43.900Z,2.17
2022-10-25T13:40:25.915Z,2.40
2022-10-25T13:43:06.143Z,2.40
2022-10-25T13:45:42.917Z,2.10
2022-10-25T13:48:31.044Z,2.67
2022-10-25T13:51:05.272Z,2.17
2022-10-25T13:53:37.863Z,2.22
2022-10-25T13:56:09.326Z,1.52
2022-10-25T13:58:50.081Z,2.53
2022-10-25T14:01:56.371Z,1.67
2022-10-25T14:04:42.710Z,1.50
2022-10-25T14:07:42.565Z,1.50
2022-10-25T14:13:20.659Z,2.33
2022-10-25T14:15:55.811Z,2.17
2022-10-25T14:18:25.928Z,1.70
2022-10-25T14:20:57.682Z,1.52
2022-10-25T14:23:30.597Z,1.65
2022-10-25T14:26:05.199Z,1.25
2022-10-25T14:28:36.916Z,1.33
2022-10-25T14:31:07.840Z,1.83
2022-10-25T14:33:41.630Z,1.52
2022-10-25T14:36:13.877Z,1.83
2022-10-25T14:38:53.784Z,1.70
2022-10-25T14:41:27.614Z,2.10
2022-10-25T14:43:57.700Z,3.67
2022-10-25T14:46:30.103Z,1.83
2022-10-25T14:49:00.895Z,2.40
2022-10-25T14:51:32.080Z,2.40
2022-10-25T14:54:04.095Z,2.05
2022-10-25T14:56:38.792Z,1.90
2022-10-25T14:59:10.050Z,1.67
2022-10-25T15:01:40.233Z,2.00
2022-10-25T15:04:09.797Z,1.70
2022-10-25T15:06:39.366Z,1.73
2022-10-25T15:12:18.820Z,1.60
2022-10-25T15:14:48.613Z,1.75
2022-10-25T15:17:21.391Z,1.90
2022-10-25T15:20:09.013Z,1.77
2022-10-25T15:22:45.712Z,4.10
2022-10-25T15:25:31.084Z,3.10
2022-10-25T15:28:12.516Z,2.47
2022-10-25T15:30:45.030Z,1.98
2022-10-25T15:33:16.068Z,2.25
2022-10-25T15:35:49.996Z,2.30
2022-10-25T15:40:50.413Z,2.80
2022-10-25T15:43:22.545Z,2.80
2022-10-25T15:45:52.216Z,2.70
2022-10-25T15:48:23.502Z,2.03
2022-10-25T15:50:55.125Z,2.28
2022-10-25T15:53:25.275Z,3.38
2022-10-25T15:55:55.271Z,2.50
2022-10-25T15:58:27.536Z,4.43
2022-10-25T16:00:57.154Z,18.27
2022-10-25T16:03:28.196Z,3.40
2022-10-25T16:05:57.734Z,2.53
2022-10-25T16:08:27.461Z,10.85
2022-10-25T16:10:57.366Z,2.42
2022-10-25T16:13:34.218Z,2.80
2022-10-25T16:16:11.713Z,2.72
2022-10-25T16:18:53.027Z,3.28
2022-10-25T16:21:24.406Z,2.70
2022-10-25T16:23:53.964Z,2.92
2022-10-25T16:26:26.162Z,2.80
2022-10-25T16:28:58.316Z,2.80
2022-10-25T16:31:28.357Z,3.45
2022-10-25T16:33:57.916Z,3.60
2022-10-25T16:36:27.447Z,11.60
2022-10-25T16:38:57.001Z,5.93
2022-10-25T16:41:29.363Z,3.92
2022-10-25T16:44:01.699Z,3.80
2022-10-25T16:46:31.232Z,4.05
2022-10-25T16:49:02.091Z,5.95
2022-10-25T16:51:34.347Z,4.28
2022-10-25T16:54:04.100Z,4.40
2022-10-25T16:56:33.679Z,4.60
2022-10-25T16:59:06.038Z,5.65
2022-10-25T17:01:40.006Z,5.30
2022-10-25T17:04:12.079Z,5.40
2022-10-25T17:06:42.605Z,4.93
2022-10-25T17:09:13.563Z,4.60
2022-10-25T17:11:43.220Z,4.32
2022-10-25T17:14:15.893Z,4.85
2022-10-25T17:16:46.970Z,4.88
2022-10-25T17:19:16.516Z,5.30
2022-10-25T17:21:46.045Z,5.72
2022-10-25T17:24:16.350Z,6.10
2022-10-25T17:26:45.949Z,6.63
2022-10-25T17:29:18.409Z,5.82
2022-10-25T17:31:48.081Z,6.05
2022-10-25T17:34:17.732Z,6.20
2022-10-25T17:36:47.336Z,7.65
2022-10-25T17:39:17.184Z,8.43
2022-10-25T17:41:46.709Z,8.20
2022-10-25T17:44:18.842Z,6.80
2022-10-25T17:46:48.366Z,6.75
2022-10-25T17:49:17.895Z,6.72
2022-10-25T17:51:47.788Z,7.25
2022-10-25T17:54:18.923Z,6.93
2022-10-25T17:56:48.462Z,6.20
2022-10-25T17:59:21.108Z,6.18
2022-10-25T18:01:50.777Z,6.13
2022-10-25T18:04:20.372Z,6.32
2022-10-25T18:06:49.992Z,6.20
2022-10-25T18:09:19.847Z,6.68
2022-10-25T18:11:49.363Z,6.38
2022-10-25T18:14:21.481Z,7.63
2022-10-25T18:16:51.536Z,7.13
2022-10-25T18:19:21.073Z,7.03
2022-10-25T18:21:50.608Z,8.55
2022-10-25T18:24:20.189Z,8.15
2022-10-25T18:26:49.691Z,8.23
2022-10-25T18:29:21.831Z,8.57
2022-10-25T18:31:51.494Z,8.05
2022-10-25T18:34:21.028Z,7.72
2022-10-25T18:36:50.526Z,8.75
2022-10-25T18:39:20.030Z,7.50
2022-10-25T18:41:52.554Z,7.10
2022-10-25T18:44:24.988Z,6.60
2022-10-25T18:46:55.919Z,5.10
2022-10-25T18:49:25.473Z,5.28
2022-10-25T18:51:55.290Z,5.00
2022-10-25T18:54:24.890Z,4.82
2022-10-25T18:56:54.416Z,4.55
2022-10-25T18:59:26.741Z,4.72
2022-10-25T19:01:56.439Z,5.20
2022-10-25T19:04:27.834Z,5.95
2022-10-25T19:06:57.560Z,6.15
2022-10-25T19:09:27.644Z,5.45
2022-10-25T19:11:57.448Z,4.97
2022-10-25T19:14:29.740Z,4.53
2022-10-25T19:16:59.319Z,4.32
2022-10-25T19:19:29.104Z,4.75
2022-10-25T19:21:58.729Z,4.45
2022-10-25T19:24:28.724Z,4.45
2022-10-25T19:26:58.264Z,4.10
2022-10-25T19:29:30.576Z,4.45
2022-10-25T19:32:00.382Z,4.40
2022-10-25T19:34:29.924Z,4.75
2022-10-25T19:37:04.236Z,4.07
2022-10-25T19:39:34.027Z,4.57
2022-10-25T19:42:03.598Z,3.80
2022-10-25T19:44:35.794Z,4.50
2022-10-25T19:47:05.394Z,4.20
2022-10-25T19:49:35.435Z,4.50
2022-10-25T19:52:05.120Z,4.40
2022-10-25T19:54:35.213Z,4.50
2022-10-25T19:57:06.380Z,4.20
2022-10-25T19:59:41.254Z,4.10
2022-10-25T20:02:11.217Z,4.00
2022-10-25T20:04:40.983Z,4.05
2022-10-25T20:07:10.582Z,4.40
2022-10-25T20:09:41.241Z,3.90
2022-10-25T20:12:11.096Z,4.20
2022-10-25T20:14:43.375Z,4.90
2022-10-25T20:17:13.544Z,3.95
2022-10-25T20:19:43.089Z,4.50
2022-10-25T20:22:12.657Z,3.58
2022-10-25T20:24:42.267Z,4.28
2022-10-25T20:27:11.778Z,6.07
2022-10-25T20:29:43.986Z,3.88
2022-10-25T20:32:14.994Z,4.30
2022-10-25T20:34:44.510Z,4.28
2022-10-25T20:37:14.052Z,3.90
2022-10-25T20:39:43.778Z,4.43
2022-10-25T20:42:13.395Z,4.07
2022-10-25T20:44:45.515Z,4.47
2022-10-25T20:47:15.266Z,4.40
2022-10-25T20:49:45.046Z,3.60
2022-10-25T20:52:14.648Z,4.03
2022-10-25T20:54:44.285Z,4.22
2022-10-25T20:57:13.901Z,4.35
2022-10-25T20:59:47.297Z,3.90
2022-10-25T21:02:17.151Z,4.05
2022-10-25T21:04:53.626Z,4.00
2022-10-25T21:07:23.679Z,4.07
2022-10-25T21:09:53.201Z,4.05
2022-10-25T21:12:22.738Z,4.10
2022-10-25T21:14:54.853Z,4.07
2022-10-25T21:17:25.240Z,4.13
2022-10-25T21:19:54.763Z,4.45
2022-10-25T21:22:24.360Z,3.75
2022-10-25T21:24:53.921Z,3.80
2022-10-25T21:27:23.444Z,4.00
2022-10-25T21:29:55.575Z,4.45
2022-10-25T21:32:25.115Z,4.07
2022-10-25T21:34:54.693Z,3.97
2022-10-25T21:37:24.227Z,3.63
2022-10-25T21:39:53.765Z,3.83
2022-10-25T21:42:23.319Z,3.70
2022-10-25T21:44:55.424Z,3.80
2022-10-25T21:47:24.963Z,4.00
2022-10-25T21:49:54.491Z,3.92
2022-10-25T21:52:24.041Z,3.85
2022-10-25T21:54:53.548Z,4.00
2022-10-25T21:57:23.073Z,3.70
2022-10-25T21:59:55.185Z,3.63
2022-10-25T22:02:24.906Z,3.78
2022-10-25T22:04:54.647Z,3.80
2022-10-25T22:07:24.165Z,3.45
2022-10-25T22:09:53.703Z,3.35
2022-10-25T22:12:23.206Z,3.10
2022-10-25T22:14:57.416Z,2.97
2022-10-25T22:17:27.033Z,3.10
2022-10-25T22:19:56.553Z,3.20
2022-10-25T22:22:26.215Z,3.13
2022-10-25T22:24:55.731Z,2.90
2022-10-25T22:27:25.283Z,3.10
2022-10-25T22:29:57.408Z,3.10
2022-10-25T22:32:26.918Z,3.00
2022-10-25T22:34:57.520Z,3.05
2022-10-25T22:37:27.076Z,2.60
2022-10-25T22:39:56.649Z,2.60
2022-10-25T22:42:27.704Z,3.13
2022-10-25T22:44:59.826Z,2.80
2022-10-25T22:47:29.434Z,2.65
2022-10-25T22:49:58.991Z,2.83
2022-10-25T22:52:28.520Z,3.00
2022-10-25T22:54:58.077Z,2.88
2022-10-25T22:57:27.670Z,2.65
2022-10-25T23:00:00.023Z,3.05
2022-10-25T23:02:29.589Z,2.80
2022-10-25T23:04:59.150Z,2.88
2022-10-25T23:07:28.723Z,2.63
2022-10-25T23:09:58.295Z,2.80
2022-10-25T23:12:27.863Z,2.92
2022-10-25T23:15:00.021Z,2.53
2022-10-25T23:17:29.574Z,2.42
2022-10-25T23:19:59.129Z,2.55
2022-10-25T23:22:28.693Z,2.63
2022-10-25T23:24:58.420Z,2.60
2022-10-25T23:27:28.001Z,2.75
2022-10-25T23:30:00.211Z,2.70
2022-10-25T23:32:29.774Z,2.35
2022-10-25T23:34:59.327Z,2.50
2022-10-25T23:37:28.873Z,2.60
2022-10-25T23:39:58.429Z,2.75
2022-10-25T23:42:27.976Z,2.33
2022-10-25T23:45:03.425Z,2.60
2022-10-25T23:47:34.333Z,2.45
2022-10-25T23:50:03.904Z,2.60
2022-10-25T23:52:33.531Z,2.85
2022-10-25T23:55:03.156Z,2.40
2022-10-25T23:57:32.788Z,2.60
